createdAt,value
2019-02-18T00:00:22.240Z,17.40
2019-02-18T00:02:48.479Z,17.40
2019-02-18T00:05:14.684Z,17.40
2019-02-18T00:07:40.970Z,17.40
2019-02-18T00:10:07.374Z,17.40
2019-02-18T00:12:33.791Z,17.40
2019-02-18T00:15:00.360Z,17.40
2019-02-18T00:17:26.673Z,17.40
2019-02-18T00:19:53.738Z,17.40
2019-02-18T00:22:21.756Z,17.40
2019-02-18T00:24:46.592Z,17.40
2019-02-18T00:27:12.844Z,17.40
2019-02-18T00:29:39.261Z,17.40
2019-02-18T00:32:05.683Z,17.40
2019-02-18T00:34:32.113Z,17.40
2019-02-18T00:36:58.348Z,17.40
2019-02-18T00:39:24.549Z,17.40
2019-02-18T00:41:50.825Z,17.40
2019-02-18T00:44:17.265Z,17.40
2019-02-18T00:46:43.654Z,17.40
2019-02-18T00:49:10.119Z,17.40
2019-02-18T00:51:36.769Z,17.40
2019-02-18T00:54:03.163Z,17.40
2019-02-18T00:56:29.431Z,17.30
2019-02-18T00:58:55.823Z,17.30
2019-02-18T01:01:23.694Z,17.30
2019-02-18T01:03:49.939Z,17.30
2019-02-18T01:06:16.337Z,17.30
2019-02-18T01:08:42.580Z,17.30
2019-02-18T01:11:08.809Z,17.30
2019-02-18T01:13:35.285Z,17.30
2019-02-18T01:16:01.694Z,17.30
2019-02-18T01:18:27.930Z,17.30
2019-02-18T01:20:54.358Z,17.30
2019-02-18T01:23:20.584Z,17.30
2019-02-18T01:25:47.256Z,17.30
2019-02-18T01:28:13.652Z,17.30
2019-02-18T01:30:40.103Z,17.30
2019-02-18T01:33:06.749Z,17.30
2019-02-18T01:35:33.135Z,17.30
2019-02-18T01:37:59.370Z,17.30
2019-02-18T01:40:25.599Z,17.30
2019-02-18T01:42:53.457Z,17.20
2019-02-18T01:45:19.940Z,17.20
2019-02-18T01:47:46.352Z,17.20
2019-02-18T01:50:12.788Z,17.20
2019-02-18T01:52:39.191Z,17.20
2019-02-18T01:55:05.673Z,17.20
2019-02-18T01:57:32.068Z,17.20
2019-02-18T01:59:58.541Z,17.20
2019-02-18T02:02:24.973Z,17.20
2019-02-18T02:04:51.371Z,17.20
2019-02-18T02:07:17.586Z,17.20
2019-02-18T02:09:44.213Z,17.20
2019-02-18T02:12:10.764Z,17.20
2019-02-18T02:14:37.108Z,17.20
2019-02-18T02:17:03.340Z,17.20
2019-02-18T02:19:29.583Z,17.20
2019-02-18T02:21:55.983Z,17.20
2019-02-18T02:24:22.219Z,17.20
2019-02-18T02:26:48.440Z,17.20
2019-02-18T02:29:14.706Z,17.20
2019-02-18T02:31:41.109Z,17.20
2019-02-18T02:34:07.334Z,17.20
2019-02-18T02:36:33.561Z,17.20
2019-02-18T02:38:59.806Z,17.20
2019-02-18T02:41:26.017Z,17.20
2019-02-18T02:43:52.260Z,17.20
2019-02-18T02:46:18.689Z,17.20
2019-02-18T02:48:44.933Z,17.20
2019-02-18T02:51:11.176Z,17.20
2019-02-18T02:53:38.384Z,17.20
2019-02-18T02:56:04.620Z,17.20
2019-02-18T02:58:30.840Z,17.10
2019-02-18T03:00:57.122Z,17.20
2019-02-18T03:03:23.551Z,17.10
2019-02-18T03:05:49.963Z,17.10
2019-02-18T03:08:20.360Z,17.10
2019-02-18T03:10:42.823Z,17.10
2019-02-18T03:13:09.254Z,17.10
2019-02-18T03:15:35.468Z,17.10
2019-02-18T03:18:01.662Z,17.10
2019-02-18T03:20:27.946Z,17.10
2019-02-18T03:22:54.184Z,17.10
2019-02-18T03:25:20.383Z,17.10
2019-02-18T03:27:46.588Z,17.10
2019-02-18T03:30:12.872Z,17.10
2019-02-18T03:32:39.276Z,17.10
2019-02-18T03:35:07.144Z,17.10
2019-02-18T03:37:33.385Z,17.10
2019-02-18T03:39:59.643Z,17.10
2019-02-18T03:42:26.043Z,17.10
2019-02-18T03:44:52.259Z,17.10
2019-02-18T03:47:18.535Z,17.10
2019-02-18T03:49:44.937Z,17.10
2019-02-18T03:52:11.157Z,17.10
2019-02-18T03:54:37.597Z,17.10
2019-02-18T03:57:04.022Z,17.10
2019-02-18T03:59:30.685Z,17.10
2019-02-18T04:01:57.082Z,17.10
2019-02-18T04:04:23.322Z,17.10
2019-02-18T04:06:49.591Z,17.10
2019-02-18T04:09:16.005Z,17.10
2019-02-18T04:11:42.426Z,17.10
2019-02-18T04:14:08.637Z,17.10
2019-02-18T04:16:34.845Z,17.10
2019-02-18T04:19:01.105Z,17.10
2019-02-18T04:21:27.562Z,17.10
2019-02-18T04:23:53.975Z,17.10
2019-02-18T04:26:20.643Z,17.10
2019-02-18T04:28:47.027Z,17.00
2019-02-18T04:31:13.514Z,17.00
2019-02-18T04:33:40.509Z,17.00
2019-02-18T04:36:06.991Z,17.00
2019-02-18T04:38:33.399Z,17.00
2019-02-18T04:40:59.823Z,17.10
2019-02-18T04:43:26.055Z,17.00
2019-02-18T04:45:52.265Z,17.00
2019-02-18T04:48:18.495Z,17.00
2019-02-18T04:50:44.753Z,17.00
2019-02-18T04:53:10.948Z,17.00
2019-02-18T04:55:37.200Z,17.00
2019-02-18T04:58:06.096Z,17.00
2019-02-18T05:00:29.863Z,17.00
2019-02-18T05:02:56.341Z,17.00
2019-02-18T05:05:22.716Z,17.00
2019-02-18T05:07:49.215Z,17.10
2019-02-18T05:10:16.197Z,17.00
2019-02-18T05:12:42.469Z,17.00
2019-02-18T05:15:08.871Z,17.00
2019-02-18T05:17:35.326Z,17.00
2019-02-18T05:20:01.786Z,17.00
2019-02-18T05:22:28.154Z,17.00
2019-02-18T05:24:56.042Z,17.00
2019-02-18T05:27:33.002Z,17.00
2019-02-18T05:29:49.751Z,17.00
2019-02-18T05:32:16.142Z,17.00
2019-02-18T05:34:42.393Z,17.00
2019-02-18T05:37:08.793Z,17.00
2019-02-18T05:39:35.064Z,17.00
2019-02-18T05:42:01.729Z,17.00
2019-02-18T05:44:28.095Z,17.00
2019-02-18T05:46:54.347Z,17.00
2019-02-18T05:49:20.776Z,17.00
2019-02-18T05:51:46.986Z,17.00
2019-02-18T05:54:13.470Z,17.00
2019-02-18T05:56:39.874Z,17.00
2019-02-18T05:59:06.306Z,17.00
2019-02-18T06:01:32.769Z,17.00
2019-02-18T06:04:00.194Z,17.00
2019-02-18T06:06:25.385Z,17.00
2019-02-18T06:08:51.871Z,17.00
2019-02-18T06:11:18.503Z,17.00
2019-02-18T06:13:44.703Z,17.00
2019-02-18T06:16:11.575Z,16.90
2019-02-18T06:18:37.987Z,16.90
2019-02-18T06:21:04.766Z,16.90
2019-02-18T06:23:31.013Z,16.90
2019-02-18T06:25:57.319Z,16.90
2019-02-18T06:28:23.690Z,17.00
2019-02-18T06:30:49.916Z,17.00
2019-02-18T06:33:16.140Z,16.90
2019-02-18T06:35:42.383Z,16.90
2019-02-18T06:38:10.264Z,16.90
2019-02-18T06:40:37.292Z,17.00
2019-02-18T06:43:03.773Z,16.90
2019-02-18T06:45:30.186Z,16.90
2019-02-18T06:47:56.660Z,16.90
2019-02-18T06:50:23.023Z,17.00
2019-02-18T06:52:49.261Z,16.90
2019-02-18T06:55:15.943Z,16.90
2019-02-18T06:57:42.323Z,16.90
2019-02-18T07:00:08.588Z,16.90
2019-02-18T07:02:34.995Z,17.00
2019-02-18T07:05:01.264Z,16.90
2019-02-18T07:07:27.463Z,16.90
2019-02-18T07:09:53.710Z,16.90
2019-02-18T07:12:20.194Z,16.90
2019-02-18T07:14:46.550Z,16.90
2019-02-18T07:17:12.770Z,16.90
2019-02-18T07:19:39.007Z,16.90
2019-02-18T07:22:05.219Z,16.90
2019-02-18T07:24:32.732Z,16.90
2019-02-18T07:26:59.152Z,16.90
2019-02-18T07:29:25.800Z,16.90
2019-02-18T07:31:52.220Z,16.90
2019-02-18T07:34:18.613Z,16.90
2019-02-18T07:36:45.103Z,16.90
2019-02-18T07:39:11.481Z,16.90
2019-02-18T07:41:37.710Z,16.90
2019-02-18T07:44:03.946Z,16.90
2019-02-18T07:46:30.164Z,16.90
2019-02-18T07:48:56.427Z,16.90
2019-02-18T07:51:22.831Z,16.90
2019-02-18T07:53:49.084Z,16.90
2019-02-18T07:56:15.542Z,16.90
2019-02-18T07:58:41.933Z,16.90
2019-02-18T08:01:08.115Z,16.90
2019-02-18T08:03:34.437Z,16.90
2019-02-18T08:06:00.889Z,16.80
2019-02-18T08:08:27.245Z,16.80
2019-02-18T08:10:53.913Z,16.90
2019-02-18T08:13:20.129Z,16.90
2019-02-18T08:15:46.318Z,16.90
2019-02-18T08:18:12.595Z,16.90
2019-02-18T08:20:38.815Z,16.90
2019-02-18T08:23:05.039Z,16.90
2019-02-18T08:25:32.907Z,16.80
2019-02-18T08:27:59.143Z,16.80
2019-02-18T08:30:26.181Z,16.80
2019-02-18T08:32:52.415Z,16.80
2019-02-18T08:35:19.468Z,16.80
2019-02-18T08:37:45.725Z,16.80
2019-02-18T08:40:21.773Z,16.80
2019-02-18T08:42:38.812Z,16.80
2019-02-18T08:45:05.221Z,16.80
2019-02-18T08:47:31.868Z,16.80
2019-02-18T08:49:58.506Z,16.80
2019-02-18T08:52:24.915Z,16.80
2019-02-18T08:54:56.447Z,16.80
2019-02-18T08:57:17.772Z,16.80
2019-02-18T08:59:44.019Z,16.80
2019-02-18T09:02:12.071Z,16.80
2019-02-18T09:04:39.955Z,16.80
2019-02-18T09:07:06.616Z,16.80
2019-02-18T09:09:33.042Z,16.80
2019-02-18T09:11:59.455Z,16.80
2019-02-18T09:14:25.911Z,16.80
2019-02-18T09:16:52.306Z,16.80
2019-02-18T09:19:18.511Z,16.80
2019-02-18T09:21:44.808Z,16.80
2019-02-18T09:24:11.195Z,16.90
2019-02-18T09:26:37.411Z,16.80
2019-02-18T09:29:03.659Z,16.90
2019-02-18T09:31:29.902Z,16.90
2019-02-18T09:33:56.303Z,16.90
2019-02-18T09:36:22.549Z,16.80
2019-02-18T09:38:48.774Z,16.80
2019-02-18T09:41:15.041Z,16.90
2019-02-18T09:43:41.472Z,16.80
2019-02-18T09:46:07.863Z,16.90
2019-02-18T09:48:34.918Z,16.90
2019-02-18T09:51:02.794Z,16.90
2019-02-18T09:53:29.474Z,16.90
2019-02-18T09:55:55.832Z,16.90
2019-02-18T09:58:22.079Z,16.90
2019-02-18T10:00:48.265Z,16.90
2019-02-18T10:03:14.487Z,16.90
2019-02-18T10:05:40.771Z,16.90
2019-02-18T10:08:07.038Z,16.90
2019-02-18T10:10:33.424Z,16.90
2019-02-18T10:12:59.840Z,16.90
2019-02-18T10:15:26.130Z,16.90
2019-02-18T10:17:52.522Z,16.90
2019-02-18T10:20:20.400Z,16.90
2019-02-18T10:22:46.869Z,16.90
2019-02-18T10:25:13.277Z,16.90
2019-02-18T10:27:39.729Z,16.90
2019-02-18T10:30:06.107Z,16.90
2019-02-18T10:32:32.347Z,16.90
2019-02-18T10:34:58.587Z,16.90
2019-02-18T10:37:24.820Z,16.90
2019-02-18T10:39:51.268Z,16.90
2019-02-18T10:42:17.685Z,16.90
2019-02-18T10:44:44.965Z,16.90
2019-02-18T10:47:11.366Z,16.90
2019-02-18T10:49:37.831Z,16.90
2019-02-18T10:52:04.286Z,16.90
2019-02-18T10:54:30.708Z,16.90
2019-02-18T10:56:57.115Z,16.90
2019-02-18T10:59:23.547Z,16.90
2019-02-18T11:01:49.998Z,16.90
2019-02-18T11:04:16.464Z,16.90
2019-02-18T11:06:42.858Z,16.90
2019-02-18T11:09:09.279Z,16.90
2019-02-18T11:11:35.710Z,16.90
2019-02-18T11:14:01.942Z,16.90
2019-02-18T11:16:28.397Z,16.90
2019-02-18T11:18:54.787Z,16.90
2019-02-18T11:21:21.227Z,16.90
2019-02-18T11:23:47.427Z,16.90
2019-02-18T11:26:13.926Z,16.90
2019-02-18T11:28:40.154Z,16.90
2019-02-18T11:31:06.547Z,16.90
2019-02-18T11:33:32.783Z,16.90
2019-02-18T11:35:59.059Z,16.90
2019-02-18T11:38:25.456Z,16.90
2019-02-18T11:40:51.872Z,16.90
2019-02-18T11:43:18.094Z,16.90
2019-02-18T11:45:44.331Z,16.90
2019-02-18T11:48:10.586Z,16.90
2019-02-18T11:50:36.992Z,16.90
2019-02-18T11:53:03.286Z,16.90
2019-02-18T11:55:29.891Z,16.90
2019-02-18T11:57:56.292Z,16.90
2019-02-18T12:00:24.205Z,16.90
2019-02-18T12:02:50.626Z,16.90
2019-02-18T12:05:16.999Z,16.80
2019-02-18T12:07:43.251Z,16.90
2019-02-18T12:10:09.477Z,16.90
2019-02-18T12:12:35.925Z,16.90
2019-02-18T12:15:02.600Z,16.90
2019-02-18T12:17:28.967Z,16.90
2019-02-18T12:19:55.452Z,16.90
2019-02-18T12:22:22.090Z,16.80
2019-02-18T12:24:48.495Z,16.90
2019-02-18T12:27:14.923Z,16.80
2019-02-18T12:29:41.347Z,16.80
2019-02-18T12:32:07.771Z,16.90
2019-02-18T12:34:34.462Z,16.80
2019-02-18T12:37:00.855Z,16.80
2019-02-18T12:39:27.071Z,16.80
2019-02-18T12:41:53.560Z,16.80
2019-02-18T12:44:20.011Z,16.80
2019-02-18T12:46:46.396Z,16.80
2019-02-18T12:49:12.800Z,16.80
2019-02-18T12:51:39.047Z,16.80
2019-02-18T12:54:05.549Z,16.80
2019-02-18T12:56:31.914Z,16.80
2019-02-18T12:58:58.376Z,16.80
2019-02-18T13:01:24.775Z,16.80
2019-02-18T13:03:52.663Z,16.80
2019-02-18T13:06:19.113Z,16.80
2019-02-18T13:08:45.560Z,16.80
2019-02-18T13:11:12.188Z,16.80
2019-02-18T13:13:38.579Z,16.80
2019-02-18T13:16:05.012Z,16.80
2019-02-18T13:18:31.472Z,16.80
2019-02-18T13:20:57.888Z,16.80
2019-02-18T13:23:24.559Z,16.80
2019-02-18T13:25:50.996Z,16.80
2019-02-18T13:28:17.420Z,16.80
2019-02-18T13:30:43.853Z,16.80
2019-02-18T13:33:11.395Z,16.80
2019-02-18T13:35:38.526Z,16.80
2019-02-18T13:38:04.963Z,16.80
2019-02-18T13:40:31.179Z,16.80
2019-02-18T13:42:57.419Z,16.80
2019-02-18T13:45:23.660Z,16.80
2019-02-18T13:47:49.900Z,16.80
2019-02-18T13:50:16.304Z,16.80
2019-02-18T13:52:42.785Z,16.80
2019-02-18T13:55:09.011Z,16.80
2019-02-18T13:57:35.649Z,16.80
2019-02-18T14:00:02.329Z,16.80
2019-02-18T14:02:28.724Z,16.80
2019-02-18T14:04:55.098Z,16.80
2019-02-18T14:07:21.547Z,16.80
2019-02-18T14:09:47.768Z,16.80
2019-02-18T14:12:16.107Z,16.80
2019-02-18T14:14:40.476Z,16.80
2019-02-18T14:17:06.888Z,16.80
2019-02-18T14:19:33.343Z,16.80
2019-02-18T14:21:59.777Z,16.80
2019-02-18T14:24:26.210Z,16.80
2019-02-18T14:26:52.594Z,16.80
2019-02-18T14:29:19.659Z,16.80
2019-02-18T14:31:46.123Z,16.80
2019-02-18T14:34:12.532Z,16.80
2019-02-18T14:36:39.196Z,16.80
2019-02-18T14:39:05.594Z,16.80
2019-02-18T14:41:32.050Z,16.80
2019-02-18T14:43:58.467Z,16.80
2019-02-18T14:46:24.914Z,16.80
2019-02-18T14:48:51.360Z,16.80
2019-02-18T14:51:17.763Z,16.80
2019-02-18T14:53:44.197Z,16.80
2019-02-18T14:56:10.661Z,16.80
2019-02-18T14:58:37.067Z,16.80
2019-02-18T15:01:03.482Z,16.80
2019-02-18T15:03:29.707Z,16.80
2019-02-18T15:05:56.168Z,16.80
2019-02-18T15:08:22.587Z,16.80
2019-02-18T15:10:49.005Z,16.80
2019-02-18T15:13:15.256Z,16.80
2019-02-18T15:15:41.695Z,16.80
2019-02-18T15:18:08.130Z,16.80
2019-02-18T15:20:34.531Z,16.80
2019-02-18T15:23:02.410Z,16.80
2019-02-18T15:25:30.337Z,16.80
2019-02-18T15:27:56.738Z,16.80
2019-02-18T15:30:23.189Z,16.80
2019-02-18T15:32:49.612Z,16.80
2019-02-18T15:35:16.023Z,16.80
2019-02-18T15:37:42.467Z,16.80
2019-02-18T15:40:09.124Z,16.80
2019-02-18T15:42:41.892Z,16.80
2019-02-18T15:45:01.980Z,16.80
2019-02-18T15:47:28.405Z,16.80
2019-02-18T15:49:54.826Z,16.80
2019-02-18T15:52:21.248Z,16.80
2019-02-18T15:54:47.710Z,16.80
2019-02-18T15:57:14.118Z,16.80
2019-02-18T15:59:40.588Z,16.80
2019-02-18T16:02:07.015Z,16.80
2019-02-18T16:04:33.428Z,16.80
2019-02-18T16:06:59.842Z,16.80
2019-02-18T16:09:26.081Z,16.80
2019-02-18T16:11:52.766Z,16.80
2019-02-18T16:14:19.139Z,16.80
2019-02-18T16:16:45.417Z,16.80
2019-02-18T16:19:11.684Z,16.80
2019-02-18T16:21:38.036Z,16.80
2019-02-18T16:24:04.482Z,16.80
2019-02-18T16:26:31.143Z,16.80
2019-02-18T16:28:57.559Z,16.80
2019-02-18T16:31:24.044Z,16.80
2019-02-18T16:33:50.408Z,16.80
2019-02-18T16:36:16.689Z,16.80
2019-02-18T16:38:43.318Z,16.80
2019-02-18T16:41:09.748Z,16.80
2019-02-18T16:43:36.140Z,16.80
2019-02-18T16:46:02.385Z,16.80
2019-02-18T16:48:28.848Z,16.80
2019-02-18T16:50:55.248Z,16.80
2019-02-18T16:53:21.507Z,16.80
2019-02-18T16:55:47.907Z,16.80
2019-02-18T16:58:14.343Z,16.80
2019-02-18T17:00:40.561Z,16.80
2019-02-18T17:03:06.776Z,16.90
2019-02-18T17:05:33.010Z,16.80
2019-02-18T17:08:00.893Z,16.80
2019-02-18T17:10:27.577Z,16.80
2019-02-18T17:12:53.968Z,16.80
2019-02-18T17:15:20.170Z,16.80
2019-02-18T17:17:46.418Z,16.80
2019-02-18T17:20:12.843Z,16.80
2019-02-18T17:22:39.103Z,16.80
2019-02-18T17:25:05.561Z,16.80
2019-02-18T17:27:31.943Z,16.80
2019-02-18T17:29:58.382Z,16.80
2019-02-18T17:32:24.811Z,16.80
2019-02-18T17:34:52.918Z,16.80
2019-02-18T17:37:19.317Z,16.80
2019-02-18T17:39:46.170Z,16.90
2019-02-18T17:42:12.638Z,16.80
2019-02-18T17:44:39.021Z,16.80
2019-02-18T17:47:05.459Z,16.80
2019-02-18T17:49:31.887Z,16.90
2019-02-18T17:51:58.114Z,16.90
2019-02-18T17:54:24.332Z,16.80
2019-02-18T17:56:52.454Z,16.80
2019-02-18T17:59:18.840Z,16.80
2019-02-18T18:01:45.091Z,16.90
2019-02-18T18:04:11.518Z,16.80
2019-02-18T18:06:37.957Z,16.80
2019-02-18T18:09:04.363Z,16.80
2019-02-18T18:11:30.647Z,16.90
2019-02-18T18:13:57.050Z,16.90
2019-02-18T18:16:23.518Z,16.80
2019-02-18T18:18:49.927Z,16.80
2019-02-18T18:21:16.350Z,16.80
2019-02-18T18:23:42.796Z,16.90
2019-02-18T18:26:09.222Z,16.90
2019-02-18T18:28:35.635Z,16.90
2019-02-18T18:31:01.907Z,16.90
2019-02-18T18:33:28.303Z,16.80
2019-02-18T18:35:54.755Z,16.80
2019-02-18T18:38:22.767Z,16.80
2019-02-18T18:40:47.592Z,16.90
2019-02-18T18:43:15.498Z,16.80
2019-02-18T18:45:41.902Z,16.80
2019-02-18T18:48:08.323Z,16.80
2019-02-18T18:50:34.584Z,16.90
2019-02-18T18:53:00.787Z,16.80
2019-02-18T18:55:27.011Z,16.80
2019-02-18T18:57:53.252Z,16.80
2019-02-18T19:00:19.720Z,16.80
2019-02-18T19:02:46.106Z,16.90
2019-02-18T19:05:12.371Z,16.80
2019-02-18T19:07:39.600Z,16.80
2019-02-18T19:10:05.884Z,16.80
2019-02-18T19:12:32.271Z,16.80
2019-02-18T19:14:58.730Z,16.80
2019-02-18T19:17:25.131Z,16.80
2019-02-18T19:19:57.764Z,16.80
2019-02-18T19:22:18.024Z,16.80
2019-02-18T19:24:44.419Z,16.90
2019-02-18T19:27:10.631Z,16.80
2019-02-18T19:29:36.883Z,16.80
2019-02-18T19:32:04.775Z,16.80
2019-02-18T19:34:30.975Z,16.80
2019-02-18T19:36:58.860Z,16.90
2019-02-18T19:39:25.293Z,16.80
2019-02-18T19:41:51.752Z,16.80
2019-02-18T19:44:19.871Z,16.80
2019-02-18T19:46:44.615Z,16.80
2019-02-18T19:49:11.007Z,16.80
2019-02-18T19:51:37.288Z,16.80
2019-02-18T19:54:03.681Z,16.90
2019-02-18T19:56:30.124Z,16.90
2019-02-18T19:58:56.580Z,16.80
2019-02-18T20:01:23.019Z,16.90
2019-02-18T20:03:49.394Z,16.80
2019-02-18T20:06:15.631Z,16.80
2019-02-18T20:08:42.045Z,16.80
2019-02-18T20:11:08.281Z,16.90
2019-02-18T20:13:34.547Z,16.90
2019-02-18T20:16:00.953Z,16.80
2019-02-18T20:18:27.200Z,16.80
2019-02-18T20:20:53.608Z,16.80
2019-02-18T20:23:19.858Z,16.90
2019-02-18T20:25:46.323Z,16.90
2019-02-18T20:28:12.522Z,16.90
2019-02-18T20:30:39.193Z,16.90
2019-02-18T20:33:06.028Z,16.90
2019-02-18T20:35:32.428Z,16.90
2019-02-18T20:37:59.470Z,16.80
2019-02-18T20:40:25.699Z,16.90
2019-02-18T20:42:51.977Z,16.90
2019-02-18T20:45:18.375Z,16.90
2019-02-18T20:47:44.796Z,16.90
2019-02-18T20:50:11.838Z,16.90
2019-02-18T20:52:38.069Z,16.90
2019-02-18T20:55:04.541Z,16.90
2019-02-18T20:57:30.946Z,16.90
2019-02-18T20:59:57.371Z,16.90
2019-02-18T21:02:23.610Z,16.90
2019-02-18T21:04:50.069Z,16.90
2019-02-18T21:07:16.487Z,16.90
2019-02-18T21:09:43.142Z,16.90
2019-02-18T21:12:09.789Z,16.90
2019-02-18T21:14:36.156Z,16.80
2019-02-18T21:17:02.860Z,16.80
2019-02-18T21:19:29.239Z,16.90
2019-02-18T21:21:55.931Z,16.90
2019-02-18T21:24:22.323Z,16.90
2019-02-18T21:26:49.606Z,16.80
2019-02-18T21:29:17.237Z,16.80
2019-02-18T21:31:42.452Z,16.80
2019-02-18T21:34:08.891Z,16.80
2019-02-18T21:36:35.378Z,16.80
2019-02-18T21:39:01.774Z,16.80
2019-02-18T21:41:28.173Z,16.80
2019-02-18T21:43:54.854Z,16.80
2019-02-18T21:46:21.232Z,16.80
2019-02-18T21:48:47.485Z,16.80
2019-02-18T21:51:13.963Z,16.80
2019-02-18T21:53:42.245Z,16.80
2019-02-18T21:56:07.830Z,16.80
2019-02-18T21:58:34.243Z,16.80
2019-02-18T22:01:00.650Z,16.70
2019-02-18T22:03:26.877Z,16.70
2019-02-18T22:05:53.119Z,16.70
2019-02-18T22:08:19.381Z,16.70
2019-02-18T22:10:45.779Z,16.70
2019-02-18T22:13:12.028Z,16.60
2019-02-18T22:15:38.478Z,16.60
2019-02-18T22:18:04.876Z,16.60
2019-02-18T22:20:31.292Z,16.60
2019-02-18T22:22:57.533Z,16.60
2019-02-18T22:25:23.783Z,16.60
2019-02-18T22:27:50.217Z,16.60
2019-02-18T22:30:16.643Z,16.60
2019-02-18T22:32:43.064Z,16.60
2019-02-18T22:35:09.311Z,16.60
2019-02-18T22:37:35.723Z,16.60
2019-02-18T22:40:02.013Z,16.60
2019-02-18T22:42:28.373Z,16.60
2019-02-18T22:44:54.627Z,16.60
2019-02-18T22:47:22.510Z,16.60
2019-02-18T22:49:48.158Z,16.60
2019-02-18T22:52:14.370Z,16.50
2019-02-18T22:54:40.755Z,16.50
2019-02-18T22:57:07.207Z,16.50
2019-02-18T22:59:33.427Z,16.50
2019-02-18T23:01:59.862Z,16.50
2019-02-18T23:04:26.288Z,16.50
2019-02-18T23:06:52.500Z,16.50
2019-02-18T23:09:18.983Z,16.50
2019-02-18T23:11:45.406Z,16.50
2019-02-18T23:14:11.819Z,16.50
2019-02-18T23:16:38.028Z,16.50
2019-02-18T23:19:04.463Z,16.50
2019-02-18T23:21:30.712Z,16.50
2019-02-18T23:23:57.379Z,16.50
2019-02-18T23:26:23.800Z,16.50
2019-02-18T23:28:50.235Z,16.40
2019-02-18T23:31:16.882Z,16.40
2019-02-18T23:33:43.274Z,16.50
2019-02-18T23:36:09.488Z,16.40
2019-02-18T23:38:35.727Z,16.40
2019-02-18T23:41:01.951Z,16.40
2019-02-18T23:43:28.192Z,16.40
2019-02-18T23:45:54.457Z,16.40
2019-02-18T23:48:20.858Z,16.40
2019-02-18T23:50:47.323Z,16.50
2019-02-18T23:53:13.754Z,16.40
2019-02-18T23:55:40.150Z,16.40
2019-02-18T23:58:06.418Z,16.40
